sensor_id;sensor_type;location;lat;lon;timestamp;temperature;humidity
7240;DHT22;3661;53.288;10.458;2023-09-30T00:02:48;14.70;99.90
7240;DHT22;3661;53.288;10.458;2023-09-30T00:05:24;14.60;99.90
7240;DHT22;3661;53.288;10.458;2023-09-30T00:13:21;14.60;99.90
7240;DHT22;3661;53.288;10.458;2023-09-30T00:16:03;14.50;99.90
7240;DHT22;3661;53.288;10.458;2023-09-30T00:24:52;14.50;99.90
7240;DHT22;3661;53.288;10.458;2023-09-30T00:27:30;14.40;99.90
7240;DHT22;3661;53.288;10.458;2023-09-30T00:48:57;14.20;99.90
7240;DHT22;3661;53.288;10.458;2023-09-30T00:55:39;14.20;99.90
7240;DHT22;3661;53.288;10.458;2023-09-30T01:01:54;14.10;99.90
7240;DHT22;3661;53.288;10.458;2023-09-30T01:54:45;13.80;99.90
7240;DHT22;3661;53.288;10.458;2023-09-30T02:04:58;13.70;99.90
7240;DHT22;3661;53.288;10.458;2023-09-30T02:07:32;13.70;99.90
7240;DHT22;3661;53.288;10.458;2023-09-30T02:13:57;13.70;99.90
7240;DHT22;3661;53.288;10.458;2023-09-30T02:16:47;13.70;99.90
7240;DHT22;3661;53.288;10.458;2023-09-30T02:19:22;13.70;99.90
7240;DHT22;3661;53.288;10.458;2023-09-30T02:22:22;13.70;99.90
7240;DHT22;3661;53.288;10.458;2023-09-30T02:25:00;13.60;99.90
7240;DHT22;3661;53.288;10.458;2023-09-30T02:27:52;13.60;99.90
7240;DHT22;3661;53.288;10.458;2023-09-30T02:30:41;13.60;99.90
7240;DHT22;3661;53.288;10.458;2023-09-30T02:33:25;13.60;99.90
7240;DHT22;3661;53.288;10.458;2023-09-30T02:36:01;13.60;99.90
7240;DHT22;3661;53.288;10.458;2023-09-30T02:38:39;13.50;99.90
7240;DHT22;3661;53.288;10.458;2023-09-30T02:41:15;13.50;99.90
7240;DHT22;3661;53.288;10.458;2023-09-30T02:43:51;13.50;99.90
7240;DHT22;3661;53.288;10.458;2023-09-30T02:46:45;13.50;99.90
7240;DHT22;3661;53.288;10.458;2023-09-30T02:49:22;13.40;99.90
7240;DHT22;3661;53.288;10.458;2023-09-30T02:51:58;13.40;99.90
7240;DHT22;3661;53.288;10.458;2023-09-30T02:54:33;13.40;99.90
7240;DHT22;3661;53.288;10.458;2023-09-30T02:57:14;13.40;99.90
7240;DHT22;3661;53.288;10.458;2023-09-30T03:00:05;13.40;99.90
7240;DHT22;3661;53.288;10.458;2023-09-30T03:02:49;13.30;99.90
7240;DHT22;3661;53.288;10.458;2023-09-30T03:05:28;13.30;99.90
7240;DHT22;3661;53.288;10.458;2023-09-30T03:08:05;13.30;99.90
7240;DHT22;3661;53.288;10.458;2023-09-30T03:10:42;13.20;99.90
7240;DHT22;3661;53.288;10.458;2023-09-30T03:13:17;13.30;99.90
7240;DHT22;3661;53.288;10.458;2023-09-30T03:16:05;13.20;99.90
7240;DHT22;3661;53.288;10.458;2023-09-30T03:18:45;13.20;99.90
7240;DHT22;3661;53.288;10.458;2023-09-30T03:21:25;13.20;99.90
7240;DHT22;3661;53.288;10.458;2023-09-30T03:27:33;13.20;99.90
7240;DHT22;3661;53.288;10.458;2023-09-30T03:30:12;13.10;99.90
7240;DHT22;3661;53.288;10.458;2023-09-30T03:32:49;13.10;99.90
7240;DHT22;3661;53.288;10.458;2023-09-30T03:35:39;13.10;99.90
7240;DHT22;3661;53.288;10.458;2023-09-30T03:38:19;13.10;99.90
7240;DHT22;3661;53.288;10.458;2023-09-30T03:41:25;13.10;99.90
7240;DHT22;3661;53.288;10.458;2023-09-30T03:44:01;13.00;99.90
7240;DHT22;3661;53.288;10.458;2023-09-30T03:46:40;13.00;99.90
7240;DHT22;3661;53.288;10.458;2023-09-30T03:49:21;13.00;99.90
7240;DHT22;3661;53.288;10.458;2023-09-30T03:52:17;13.00;99.90
7240;DHT22;3661;53.288;10.458;2023-09-30T03:54:55;12.90;99.90
7240;DHT22;3661;53.288;10.458;2023-09-30T03:57:30;12.90;99.90
7240;DHT22;3661;53.288;10.458;2023-09-30T04:00:06;12.90;99.90
7240;DHT22;3661;53.288;10.458;2023-09-30T04:02:47;12.80;99.90
7240;DHT22;3661;53.288;10.458;2023-09-30T04:05:25;12.90;99.90
7240;DHT22;3661;53.288;10.458;2023-09-30T04:08:12;12.80;99.90
7240;DHT22;3661;53.288;10.458;2023-09-30T04:10:49;12.80;99.90
7240;DHT22;3661;53.288;10.458;2023-09-30T04:13:23;12.80;99.90
7240;DHT22;3661;53.288;10.458;2023-09-30T04:15:59;12.70;99.90
7240;DHT22;3661;53.288;10.458;2023-09-30T04:18:37;12.70;99.90
7240;DHT22;3661;53.288;10.458;2023-09-30T04:21:11;12.70;99.90
7240;DHT22;3661;53.288;10.458;2023-09-30T04:23:46;12.70;99.90
7240;DHT22;3661;53.288;10.458;2023-09-30T04:26:21;12.60;99.90
7240;DHT22;3661;53.288;10.458;2023-09-30T04:28:56;12.60;99.90
7240;DHT22;3661;53.288;10.458;2023-09-30T04:31:31;12.60;99.90
7240;DHT22;3661;53.288;10.458;2023-09-30T04:34:04;12.60;99.90
7240;DHT22;3661;53.288;10.458;2023-09-30T04:36:38;12.60;99.90
7240;DHT22;3661;53.288;10.458;2023-09-30T04:39:11;12.60;99.90
7240;DHT22;3661;53.288;10.458;2023-09-30T04:41:47;12.60;99.90
7240;DHT22;3661;53.288;10.458;2023-09-30T04:44:19;12.50;99.90
7240;DHT22;3661;53.288;10.458;2023-09-30T04:46:52;12.50;99.90
7240;DHT22;3661;53.288;10.458;2023-09-30T04:49:25;12.50;99.90
7240;DHT22;3661;53.288;10.458;2023-09-30T04:51:58;12.50;99.90
7240;DHT22;3661;53.288;10.458;2023-09-30T04:54:32;12.50;99.90
7240;DHT22;3661;53.288;10.458;2023-09-30T04:57:06;12.50;99.90
7240;DHT22;3661;53.288;10.458;2023-09-30T04:59:38;12.50;99.90
7240;DHT22;3661;53.288;10.458;2023-09-30T05:02:12;12.50;99.90
7240;DHT22;3661;53.288;10.458;2023-09-30T05:04:45;12.50;99.90
7240;DHT22;3661;53.288;10.458;2023-09-30T05:07:19;12.50;99.90
7240;DHT22;3661;53.288;10.458;2023-09-30T05:09:53;12.50;99.90
7240;DHT22;3661;53.288;10.458;2023-09-30T05:12:26;12.50;99.90
7240;DHT22;3661;53.288;10.458;2023-09-30T05:14:58;12.50;99.90
7240;DHT22;3661;53.288;10.458;2023-09-30T05:17:30;12.50;99.90
7240;DHT22;3661;53.288;10.458;2023-09-30T05:20:03;12.50;99.90
7240;DHT22;3661;53.288;10.458;2023-09-30T05:22:48;12.50;99.90
7240;DHT22;3661;53.288;10.458;2023-09-30T05:34:57;12.50;99.90
7240;DHT22;3661;53.288;10.458;2023-09-30T05:37:31;12.40;99.90
7240;DHT22;3661;53.288;10.458;2023-09-30T05:40:05;12.50;99.90
7240;DHT22;3661;53.288;10.458;2023-09-30T05:42:48;12.50;99.90
7240;DHT22;3661;53.288;10.458;2023-09-30T05:45:22;12.50;99.90
7240;DHT22;3661;53.288;10.458;2023-09-30T05:47:57;12.40;99.90
7240;DHT22;3661;53.288;10.458;2023-09-30T05:50:35;12.50;99.90
7240;DHT22;3661;53.288;10.458;2023-09-30T05:53:07;12.50;99.90
7240;DHT22;3661;53.288;10.458;2023-09-30T05:58:45;12.50;99.90
7240;DHT22;3661;53.288;10.458;2023-09-30T06:01:34;12.50;99.90
7240;DHT22;3661;53.288;10.458;2023-09-30T06:04:11;12.50;99.90
7240;DHT22;3661;53.288;10.458;2023-09-30T06:13:08;12.50;99.90
7240;DHT22;3661;53.288;10.458;2023-09-30T06:15:42;12.50;99.90
7240;DHT22;3661;53.288;10.458;2023-09-30T06:18:15;12.50;99.90
7240;DHT22;3661;53.288;10.458;2023-09-30T06:20:49;12.50;99.90
7240;DHT22;3661;53.288;10.458;2023-09-30T06:23:23;12.60;99.90
7240;DHT22;3661;53.288;10.458;2023-09-30T06:25:55;12.60;99.90
7240;DHT22;3661;53.288;10.458;2023-09-30T06:28:30;12.60;99.90
7240;DHT22;3661;53.288;10.458;2023-09-30T06:31:06;12.60;99.90
7240;DHT22;3661;53.288;10.458;2023-09-30T06:33:39;12.60;99.90
7240;DHT22;3661;53.288;10.458;2023-09-30T06:36:13;12.60;99.90
7240;DHT22;3661;53.288;10.458;2023-09-30T06:38:46;12.60;99.90
7240;DHT22;3661;53.288;10.458;2023-09-30T06:41:21;12.60;99.90
7240;DHT22;3661;53.288;10.458;2023-09-30T06:43:55;12.60;99.90
7240;DHT22;3661;53.288;10.458;2023-09-30T06:46:28;12.60;99.90
7240;DHT22;3661;53.288;10.458;2023-09-30T06:49:00;12.70;99.90
7240;DHT22;3661;53.288;10.458;2023-09-30T06:51:33;12.70;99.90
7240;DHT22;3661;53.288;10.458;2023-09-30T06:54:05;12.70;99.90
7240;DHT22;3661;53.288;10.458;2023-09-30T06:56:38;12.70;99.90
7240;DHT22;3661;53.288;10.458;2023-09-30T06:59:13;12.70;99.90
7240;DHT22;3661;53.288;10.458;2023-09-30T07:01:45;12.70;99.90
7240;DHT22;3661;53.288;10.458;2023-09-30T07:04:18;12.80;99.90
7240;DHT22;3661;53.288;10.458;2023-09-30T07:06:50;12.80;99.90
7240;DHT22;3661;53.288;10.458;2023-09-30T07:09:23;12.80;99.90
7240;DHT22;3661;53.288;10.458;2023-09-30T07:11:57;12.80;99.90
7240;DHT22;3661;53.288;10.458;2023-09-30T07:14:31;12.80;99.90
7240;DHT22;3661;53.288;10.458;2023-09-30T07:17:07;12.90;99.90
7240;DHT22;3661;53.288;10.458;2023-09-30T07:19:40;12.90;99.90
7240;DHT22;3661;53.288;10.458;2023-09-30T07:22:12;12.90;99.90
7240;DHT22;3661;53.288;10.458;2023-09-30T07:24:45;13.00;99.90
7240;DHT22;3661;53.288;10.458;2023-09-30T07:27:17;13.00;99.90
7240;DHT22;3661;53.288;10.458;2023-09-30T07:29:51;13.10;99.90
7240;DHT22;3661;53.288;10.458;2023-09-30T07:32:24;13.10;99.90
7240;DHT22;3661;53.288;10.458;2023-09-30T07:34:56;13.20;99.90
7240;DHT22;3661;53.288;10.458;2023-09-30T07:37:30;13.20;99.90
7240;DHT22;3661;53.288;10.458;2023-09-30T07:40:03;13.30;99.90
7240;DHT22;3661;53.288;10.458;2023-09-30T07:42:38;13.30;99.90
7240;DHT22;3661;53.288;10.458;2023-09-30T07:45:14;13.40;99.90
7240;DHT22;3661;53.288;10.458;2023-09-30T07:47:47;13.50;99.90
7240;DHT22;3661;53.288;10.458;2023-09-30T07:50:20;13.60;99.90
7240;DHT22;3661;53.288;10.458;2023-09-30T07:52:52;13.60;99.90
7240;DHT22;3661;53.288;10.458;2023-09-30T07:55:24;13.70;99.90
7240;DHT22;3661;53.288;10.458;2023-09-30T07:58:05;13.80;99.90
7240;DHT22;3661;53.288;10.458;2023-09-30T08:00:41;13.90;99.90
7240;DHT22;3661;53.288;10.458;2023-09-30T08:03:18;14.00;99.90
7240;DHT22;3661;53.288;10.458;2023-09-30T08:05:52;14.10;99.90
7240;DHT22;3661;53.288;10.458;2023-09-30T08:08:25;14.10;99.90
7240;DHT22;3661;53.288;10.458;2023-09-30T08:11:00;14.20;99.90
7240;DHT22;3661;53.288;10.458;2023-09-30T08:13:35;14.40;99.90
7240;DHT22;3661;53.288;10.458;2023-09-30T08:16:10;14.50;99.90
7240;DHT22;3661;53.288;10.458;2023-09-30T08:18:46;14.60;99.90
7240;DHT22;3661;53.288;10.458;2023-09-30T08:21:19;14.70;99.90
7240;DHT22;3661;53.288;10.458;2023-09-30T08:23:52;14.80;99.90
7240;DHT22;3661;53.288;10.458;2023-09-30T08:26:28;14.90;99.90
7240;DHT22;3661;53.288;10.458;2023-09-30T08:29:05;15.00;99.90
7240;DHT22;3661;53.288;10.458;2023-09-30T08:31:38;15.10;99.90
7240;DHT22;3661;53.288;10.458;2023-09-30T08:34:11;15.20;99.90
7240;DHT22;3661;53.288;10.458;2023-09-30T08:36:46;15.30;99.90
7240;DHT22;3661;53.288;10.458;2023-09-30T08:39:19;15.50;99.90
7240;DHT22;3661;53.288;10.458;2023-09-30T08:41:52;15.60;99.90
7240;DHT22;3661;53.288;10.458;2023-09-30T08:44:30;15.70;99.90
7240;DHT22;3661;53.288;10.458;2023-09-30T08:47:04;15.80;99.90
7240;DHT22;3661;53.288;10.458;2023-09-30T08:49:39;15.90;99.90
7240;DHT22;3661;53.288;10.458;2023-09-30T08:52:13;16.10;99.90
7240;DHT22;3661;53.288;10.458;2023-09-30T08:54:53;16.20;99.90
7240;DHT22;3661;53.288;10.458;2023-09-30T08:57:28;16.30;99.90
7240;DHT22;3661;53.288;10.458;2023-09-30T09:00:03;16.40;99.90
7240;DHT22;3661;53.288;10.458;2023-09-30T09:03:08;16.60;99.90
7240;DHT22;3661;53.288;10.458;2023-09-30T09:05:56;16.80;99.90
7240;DHT22;3661;53.288;10.458;2023-09-30T09:08:33;16.90;99.90
7240;DHT22;3661;53.288;10.458;2023-09-30T09:11:06;17.00;99.90
7240;DHT22;3661;53.288;10.458;2023-09-30T09:13:50;17.20;99.90
7240;DHT22;3661;53.288;10.458;2023-09-30T09:16:30;17.30;99.90
7240;DHT22;3661;53.288;10.458;2023-09-30T09:23:09;17.60;99.90
7240;DHT22;3661;53.288;10.458;2023-09-30T09:25:43;17.80;99.90
7240;DHT22;3661;53.288;10.458;2023-09-30T09:28:16;17.90;99.90
7240;DHT22;3661;53.288;10.458;2023-09-30T09:30:50;18.00;99.90
7240;DHT22;3661;53.288;10.458;2023-09-30T09:33:48;18.20;99.90
7240;DHT22;3661;53.288;10.458;2023-09-30T09:41:54;18.60;99.90
7240;DHT22;3661;53.288;10.458;2023-09-30T09:47:24;18.80;99.90
7240;DHT22;3661;53.288;10.458;2023-09-30T09:49:58;18.90;99.90
7240;DHT22;3661;53.288;10.458;2023-09-30T09:52:34;19.00;99.90
7240;DHT22;3661;53.288;10.458;2023-09-30T09:55:09;19.10;99.90
7240;DHT22;3661;53.288;10.458;2023-09-30T09:57:46;19.30;99.90
7240;DHT22;3661;53.288;10.458;2023-09-30T10:00:20;19.40;99.90
7240;DHT22;3661;53.288;10.458;2023-09-30T10:02:54;19.60;99.90
7240;DHT22;3661;53.288;10.458;2023-09-30T10:05:28;19.70;99.90
7240;DHT22;3661;53.288;10.458;2023-09-30T10:08:03;19.80;99.90
7240;DHT22;3661;53.288;10.458;2023-09-30T10:10:40;19.90;99.90
7240;DHT22;3661;53.288;10.458;2023-09-30T10:16:50;20.10;99.90
7240;DHT22;3661;53.288;10.458;2023-09-30T10:27:34;20.40;99.90
7240;DHT22;3661;53.288;10.458;2023-09-30T10:30:18;20.50;99.90
7240;DHT22;3661;53.288;10.458;2023-09-30T10:33:11;20.60;99.90
7240;DHT22;3661;53.288;10.458;2023-09-30T10:36:12;20.60;99.90
7240;DHT22;3661;53.288;10.458;2023-09-30T10:39:01;20.60;99.90
7240;DHT22;3661;53.288;10.458;2023-09-30T10:42:10;20.70;99.90
7240;DHT22;3661;53.288;10.458;2023-09-30T10:55:57;20.70;99.90
7240;DHT22;3661;53.288;10.458;2023-09-30T10:58:54;20.70;99.90
7240;DHT22;3661;53.288;10.458;2023-09-30T11:01:34;20.70;99.90
7240;DHT22;3661;53.288;10.458;2023-09-30T11:38:28;20.90;99.90
7240;DHT22;3661;53.288;10.458;2023-09-30T11:41:45;20.90;99.90
7240;DHT22;3661;53.288;10.458;2023-09-30T11:44:51;20.80;99.90
7240;DHT22;3661;53.288;10.458;2023-09-30T11:47:40;20.90;99.90
7240;DHT22;3661;53.288;10.458;2023-09-30T14:33:31;20.70;99.90
7240;DHT22;3661;53.288;10.458;2023-09-30T14:36:16;20.70;99.90
7240;DHT22;3661;53.288;10.458;2023-09-30T14:38:53;20.70;99.90
7240;DHT22;3661;53.288;10.458;2023-09-30T14:41:30;20.70;99.90
7240;DHT22;3661;53.288;10.458;2023-09-30T15:54:37;20.00;99.90
7240;DHT22;3661;53.288;10.458;2023-09-30T15:57:09;20.00;99.90
7240;DHT22;3661;53.288;10.458;2023-09-30T15:59:43;20.00;99.90
7240;DHT22;3661;53.288;10.458;2023-09-30T16:02:16;19.90;99.90
7240;DHT22;3661;53.288;10.458;2023-09-30T16:04:49;19.80;99.90
7240;DHT22;3661;53.288;10.458;2023-09-30T16:07:22;19.80;99.90
7240;DHT22;3661;53.288;10.458;2023-09-30T16:09:58;19.70;99.90
7240;DHT22;3661;53.288;10.458;2023-09-30T16:12:32;19.70;99.90
7240;DHT22;3661;53.288;10.458;2023-09-30T16:15:04;19.60;99.90
7240;DHT22;3661;53.288;10.458;2023-09-30T16:17:48;19.60;99.90
7240;DHT22;3661;53.288;10.458;2023-09-30T16:20:25;19.40;99.90
7240;DHT22;3661;53.288;10.458;2023-09-30T16:22:58;19.40;99.90
7240;DHT22;3661;53.288;10.458;2023-09-30T16:25:39;19.30;99.90
7240;DHT22;3661;53.288;10.458;2023-09-30T16:28:14;19.20;99.90
7240;DHT22;3661;53.288;10.458;2023-09-30T16:30:49;19.20;99.90
7240;DHT22;3661;53.288;10.458;2023-09-30T16:33:23;19.10;99.90
7240;DHT22;3661;53.288;10.458;2023-09-30T16:36:07;19.00;99.90
7240;DHT22;3661;53.288;10.458;2023-09-30T16:38:40;18.90;99.90
7240;DHT22;3661;53.288;10.458;2023-09-30T16:41:19;18.80;99.90
7240;DHT22;3661;53.288;10.458;2023-09-30T16:43:52;18.80;99.90
7240;DHT22;3661;53.288;10.458;2023-09-30T16:46:25;18.70;99.90
7240;DHT22;3661;53.288;10.458;2023-09-30T16:48:58;18.60;99.90
7240;DHT22;3661;53.288;10.458;2023-09-30T16:51:34;18.50;99.90
7240;DHT22;3661;53.288;10.458;2023-09-30T17:21:40;17.60;99.90
7240;DHT22;3661;53.288;10.458;2023-09-30T17:24:14;17.40;99.90
7240;DHT22;3661;53.288;10.458;2023-09-30T17:26:46;17.40;99.90
7240;DHT22;3661;53.288;10.458;2023-09-30T17:29:19;17.30;99.90
7240;DHT22;3661;53.288;10.458;2023-09-30T17:31:52;17.20;99.90
7240;DHT22;3661;53.288;10.458;2023-09-30T17:34:25;17.20;99.90
7240;DHT22;3661;53.288;10.458;2023-09-30T17:36:59;17.10;99.90
7240;DHT22;3661;53.288;10.458;2023-09-30T17:39:32;17.00;99.90
7240;DHT22;3661;53.288;10.458;2023-09-30T17:42:05;17.00;99.90
7240;DHT22;3661;53.288;10.458;2023-09-30T17:44:37;16.90;99.90
7240;DHT22;3661;53.288;10.458;2023-09-30T17:47:10;16.80;99.90
7240;DHT22;3661;53.288;10.458;2023-09-30T17:49:42;16.80;99.90
7240;DHT22;3661;53.288;10.458;2023-09-30T17:52:16;16.70;99.90
7240;DHT22;3661;53.288;10.458;2023-09-30T17:54:49;16.60;99.90
7240;DHT22;3661;53.288;10.458;2023-09-30T17:57:21;16.60;99.90
7240;DHT22;3661;53.288;10.458;2023-09-30T17:59:54;16.60;99.90
7240;DHT22;3661;53.288;10.458;2023-09-30T18:02:27;16.50;99.90
7240;DHT22;3661;53.288;10.458;2023-09-30T18:05:00;16.40;99.90
7240;DHT22;3661;53.288;10.458;2023-09-30T18:07:34;16.40;99.90
7240;DHT22;3661;53.288;10.458;2023-09-30T18:10:08;16.30;99.90
7240;DHT22;3661;53.288;10.458;2023-09-30T18:12:41;16.30;99.90
7240;DHT22;3661;53.288;10.458;2023-09-30T18:15:13;16.30;99.90
7240;DHT22;3661;53.288;10.458;2023-09-30T18:17:46;16.20;99.90
7240;DHT22;3661;53.288;10.458;2023-09-30T18:20:18;16.20;99.90
7240;DHT22;3661;53.288;10.458;2023-09-30T18:22:52;16.10;99.90
7240;DHT22;3661;53.288;10.458;2023-09-30T18:25:24;16.10;99.90
7240;DHT22;3661;53.288;10.458;2023-09-30T18:27:59;16.10;99.90
7240;DHT22;3661;53.288;10.458;2023-09-30T18:30:31;16.10;99.90
7240;DHT22;3661;53.288;10.458;2023-09-30T18:33:04;16.00;99.90
7240;DHT22;3661;53.288;10.458;2023-09-30T18:35:37;16.00;99.90
7240;DHT22;3661;53.288;10.458;2023-09-30T18:38:11;15.90;99.90
7240;DHT22;3661;53.288;10.458;2023-09-30T18:40:44;15.90;99.90
7240;DHT22;3661;53.288;10.458;2023-09-30T18:43:17;15.90;99.90
7240;DHT22;3661;53.288;10.458;2023-09-30T18:45:49;15.90;99.90
7240;DHT22;3661;53.288;10.458;2023-09-30T18:48:22;15.80;99.90
7240;DHT22;3661;53.288;10.458;2023-09-30T18:50:56;15.80;99.90
7240;DHT22;3661;53.288;10.458;2023-09-30T18:53:30;15.80;99.90
7240;DHT22;3661;53.288;10.458;2023-09-30T18:56:03;15.80;99.90
7240;DHT22;3661;53.288;10.458;2023-09-30T18:58:35;15.70;99.90
7240;DHT22;3661;53.288;10.458;2023-09-30T19:01:08;15.70;99.90
7240;DHT22;3661;53.288;10.458;2023-09-30T19:03:40;15.70;99.90
7240;DHT22;3661;53.288;10.458;2023-09-30T19:06:14;15.60;99.90
7240;DHT22;3661;53.288;10.458;2023-09-30T19:08:48;15.60;99.90
7240;DHT22;3661;53.288;10.458;2023-09-30T19:11:20;15.60;99.90
7240;DHT22;3661;53.288;10.458;2023-09-30T19:13:53;15.60;99.90
7240;DHT22;3661;53.288;10.458;2023-09-30T19:16:27;15.50;99.90
7240;DHT22;3661;53.288;10.458;2023-09-30T19:18:59;15.50;99.90
7240;DHT22;3661;53.288;10.458;2023-09-30T19:21:32;15.50;99.90
7240;DHT22;3661;53.288;10.458;2023-09-30T19:24:07;15.50;99.90
7240;DHT22;3661;53.288;10.458;2023-09-30T19:26:39;15.40;99.90
7240;DHT22;3661;53.288;10.458;2023-09-30T19:29:12;15.40;99.90
7240;DHT22;3661;53.288;10.458;2023-09-30T19:31:44;15.40;99.90
7240;DHT22;3661;53.288;10.458;2023-09-30T19:34:17;15.40;99.90
7240;DHT22;3661;53.288;10.458;2023-09-30T19:36:49;15.40;99.90
7240;DHT22;3661;53.288;10.458;2023-09-30T19:39:24;15.40;99.90
7240;DHT22;3661;53.288;10.458;2023-09-30T19:41:56;15.30;99.90
7240;DHT22;3661;53.288;10.458;2023-09-30T19:44:29;15.30;99.90
7240;DHT22;3661;53.288;10.458;2023-09-30T19:47:01;15.30;99.90
7240;DHT22;3661;53.288;10.458;2023-09-30T19:49:37;15.30;99.90
7240;DHT22;3661;53.288;10.458;2023-09-30T19:52:10;15.20;99.90
7240;DHT22;3661;53.288;10.458;2023-09-30T19:54:44;15.20;99.90
7240;DHT22;3661;53.288;10.458;2023-09-30T19:57:16;15.20;99.90
7240;DHT22;3661;53.288;10.458;2023-09-30T19:59:49;15.20;99.90
7240;DHT22;3661;53.288;10.458;2023-09-30T20:02:21;15.20;99.90
7240;DHT22;3661;53.288;10.458;2023-09-30T20:04:54;15.20;99.90
7240;DHT22;3661;53.288;10.458;2023-09-30T20:07:27;15.20;99.90
7240;DHT22;3661;53.288;10.458;2023-09-30T20:10:00;15.10;99.90
7240;DHT22;3661;53.288;10.458;2023-09-30T20:12:34;15.10;99.90
7240;DHT22;3661;53.288;10.458;2023-09-30T20:15:08;15.10;99.90
7240;DHT22;3661;53.288;10.458;2023-09-30T20:17:41;15.10;99.90
7240;DHT22;3661;53.288;10.458;2023-09-30T20:20:14;15.10;99.90
7240;DHT22;3661;53.288;10.458;2023-09-30T20:22:48;15.10;99.90
7240;DHT22;3661;53.288;10.458;2023-09-30T20:25:22;15.10;99.90
7240;DHT22;3661;53.288;10.458;2023-09-30T20:27:56;15.10;99.90
7240;DHT22;3661;53.288;10.458;2023-09-30T20:30:29;15.10;99.90
7240;DHT22;3661;53.288;10.458;2023-09-30T20:33:02;15.10;99.90
7240;DHT22;3661;53.288;10.458;2023-09-30T20:35:34;15.10;99.90
7240;DHT22;3661;53.288;10.458;2023-09-30T20:38:06;15.10;99.90
7240;DHT22;3661;53.288;10.458;2023-09-30T20:40:40;15.00;99.90
7240;DHT22;3661;53.288;10.458;2023-09-30T20:43:13;15.00;99.90
7240;DHT22;3661;53.288;10.458;2023-09-30T20:45:46;15.00;99.90
7240;DHT22;3661;53.288;10.458;2023-09-30T20:48:18;15.00;99.90
7240;DHT22;3661;53.288;10.458;2023-09-30T20:50:50;15.00;99.90
7240;DHT22;3661;53.288;10.458;2023-09-30T20:53:25;15.00;99.90
7240;DHT22;3661;53.288;10.458;2023-09-30T20:56:00;15.00;99.90
7240;DHT22;3661;53.288;10.458;2023-09-30T20:58:33;15.00;99.90
7240;DHT22;3661;53.288;10.458;2023-09-30T21:01:06;15.00;99.90
7240;DHT22;3661;53.288;10.458;2023-09-30T21:03:39;15.00;99.90
7240;DHT22;3661;53.288;10.458;2023-09-30T21:06:11;15.00;99.90
7240;DHT22;3661;53.288;10.458;2023-09-30T21:08:46;15.00;99.90
7240;DHT22;3661;53.288;10.458;2023-09-30T21:11:23;14.90;99.90
7240;DHT22;3661;53.288;10.458;2023-09-30T21:13:55;14.90;99.90
7240;DHT22;3661;53.288;10.458;2023-09-30T21:16:27;14.90;99.90
7240;DHT22;3661;53.288;10.458;2023-09-30T21:19:00;14.90;99.90
7240;DHT22;3661;53.288;10.458;2023-09-30T21:21:32;14.90;99.90
7240;DHT22;3661;53.288;10.458;2023-09-30T21:24:12;14.90;99.90
7240;DHT22;3661;53.288;10.458;2023-09-30T21:26:46;14.90;99.90
7240;DHT22;3661;53.288;10.458;2023-09-30T21:29:19;14.90;99.90
7240;DHT22;3661;53.288;10.458;2023-09-30T21:31:52;14.90;99.90
7240;DHT22;3661;53.288;10.458;2023-09-30T21:34:25;14.90;99.90
7240;DHT22;3661;53.288;10.458;2023-09-30T21:36:57;14.90;99.90
7240;DHT22;3661;53.288;10.458;2023-09-30T21:39:30;14.80;99.90
7240;DHT22;3661;53.288;10.458;2023-09-30T21:42:17;14.80;99.90
7240;DHT22;3661;53.288;10.458;2023-09-30T21:44:50;14.80;99.90
7240;DHT22;3661;53.288;10.458;2023-09-30T21:47:22;14.80;99.90
7240;DHT22;3661;53.288;10.458;2023-09-30T21:49:54;14.80;99.90
7240;DHT22;3661;53.288;10.458;2023-09-30T21:52:27;14.80;99.90
7240;DHT22;3661;53.288;10.458;2023-09-30T21:54:59;14.80;99.90
7240;DHT22;3661;53.288;10.458;2023-09-30T22:01:10;14.70;99.90
7240;DHT22;3661;53.288;10.458;2023-09-30T22:03:52;14.70;99.90
7240;DHT22;3661;53.288;10.458;2023-09-30T22:06:28;14.70;99.90
7240;DHT22;3661;53.288;10.458;2023-09-30T22:12:06;14.70;99.90
7240;DHT22;3661;53.288;10.458;2023-09-30T22:14:39;14.70;99.90
7240;DHT22;3661;53.288;10.458;2023-09-30T22:17:35;14.70;99.90
7240;DHT22;3661;53.288;10.458;2023-09-30T22:22:49;14.70;99.90
7240;DHT22;3661;53.288;10.458;2023-09-30T22:25:22;14.70;99.90
7240;DHT22;3661;53.288;10.458;2023-09-30T22:27:54;14.70;99.90
7240;DHT22;3661;53.288;10.458;2023-09-30T22:30:27;14.70;99.90
7240;DHT22;3661;53.288;10.458;2023-09-30T22:33:03;14.70;99.90
7240;DHT22;3661;53.288;10.458;2023-09-30T22:35:37;14.70;99.90
7240;DHT22;3661;53.288;10.458;2023-09-30T22:38:14;14.60;99.90
7240;DHT22;3661;53.288;10.458;2023-09-30T22:41:02;14.70;99.90
7240;DHT22;3661;53.288;10.458;2023-09-30T22:43:51;14.60;99.90
7240;DHT22;3661;53.288;10.458;2023-09-30T22:46:42;14.60;99.90
7240;DHT22;3661;53.288;10.458;2023-09-30T22:52:42;14.60;99.90
7240;DHT22;3661;53.288;10.458;2023-09-30T22:55:46;14.60;99.90
7240;DHT22;3661;53.288;10.458;2023-09-30T22:58:42;14.60;99.90
7240;DHT22;3661;53.288;10.458;2023-09-30T23:01:38;14.60;99.90
7240;DHT22;3661;53.288;10.458;2023-09-30T23:04:16;14.50;99.90
7240;DHT22;3661;53.288;10.458;2023-09-30T23:07:19;14.50;99.90
7240;DHT22;3661;53.288;10.458;2023-09-30T23:17:10;14.50;99.90
7240;DHT22;3661;53.288;10.458;2023-09-30T23:20:08;14.50;99.90
7240;DHT22;3661;53.288;10.458;2023-09-30T23:23:13;14.50;99.90
7240;DHT22;3661;53.288;10.458;2023-09-30T23:26:12;14.50;99.90
7240;DHT22;3661;53.288;10.458;2023-09-30T23:29:04;14.50;99.90
7240;DHT22;3661;53.288;10.458;2023-09-30T23:31:48;14.50;99.90
7240;DHT22;3661;53.288;10.458;2023-09-30T23:34:38;14.50;99.90
7240;DHT22;3661;53.288;10.458;2023-09-30T23:37:32;14.50;99.90
7240;DHT22;3661;53.288;10.458;2023-09-30T23:40:12;14.50;99.90
